Time;durP1;ratioP1;P1;durP2;ratioP2;P2;SDS_P1;SDS_P2;PMS_P1;PMS_P2;Temp;Humidity;BMP_temperature;BMP_pressure;BME280_temperature;BME280_humidity;BME280_pressure;Samples;Min_cycle;Max_cycle;Signal;HPM_P1;HPM_P2
2022/03/12 00:02:07;;;;;;;41.05;21.10;;;22.60;29.70;;;;;;6152622;28;84152;-61
2022/03/12 00:05:07;;;;;;;43.58;21.48;;;22.60;29.70;;;;;;6159210;28;83005;-61
2022/03/12 00:08:08;;;;;;;47.63;21.77;;;22.50;29.80;;;;;;6141189;28;83406;-61
2022/03/12 00:11:09;;;;;;;40.10;20.98;;;22.50;29.80;;;;;;6144640;28;84182;-61
2022/03/12 00:14:09;;;;;;;45.53;22.90;;;22.60;30.10;;;;;;6159079;28;83075;-61
2022/03/12 00:17:11;;;;;;;47.58;24.45;;;22.60;29.50;;;;;;6139668;28;84241;-61
2022/03/12 00:20:12;;;;;;;45.88;25.23;;;22.60;29.50;;;;;;6134367;28;83493;-61
2022/03/12 00:23:14;;;;;;;48.13;25.55;;;22.60;29.40;;;;;;6134590;28;83255;-61
2022/03/12 00:26:15;;;;;;;48.50;26.58;;;22.70;29.20;;;;;;6141931;28;83436;-61
2022/03/12 00:29:15;;;;;;;49.13;25.75;;;22.70;28.90;;;;;;6158815;28;82865;-61
2022/03/12 00:32:16;;;;;;;45.00;25.88;;;22.70;28.80;;;;;;6143143;28;86209;-62
2022/03/12 00:35:16;;;;;;;49.97;26.60;;;22.80;28.70;;;;;;6137335;28;83192;-61
2022/03/12 00:38:17;;;;;;;48.22;25.15;;;22.80;28.60;;;;;;6158092;28;83179;-62
2022/03/12 00:41:17;;;;;;;49.15;26.42;;;22.90;28.60;;;;;;6158342;28;82833;-62
2022/03/12 00:44:19;;;;;;;48.75;26.60;;;22.90;28.40;;;;;;6120326;28;83646;-62
2022/03/12 00:47:19;;;;;;;50.42;25.95;;;22.90;28.30;;;;;;6122416;28;83980;-62
2022/03/12 00:50:20;;;;;;;51.70;27.08;;;22.90;28.20;;;;;;6133806;28;83834;-62
2022/03/12 00:53:24;;;;;;;51.40;26.35;;;23.00;28.10;;;;;;6136615;28;83123;-62
2022/03/12 00:56:24;;;;;;;53.47;28.80;;;23.00;28.20;;;;;;6144200;28;83706;-62
2022/03/12 00:59:25;;;;;;;53.80;27.08;;;23.00;28.10;;;;;;6151703;28;83139;-63
2022/03/12 01:02:25;;;;;;;50.78;27.50;;;23.00;28.00;;;;;;6139809;28;89349;-62
2022/03/12 01:05:26;;;;;;;53.17;28.88;;;23.00;28.00;;;;;;6149249;28;84507;-62
2022/03/12 01:08:27;;;;;;;47.60;25.92;;;23.00;28.00;;;;;;6135508;28;84008;-62
2022/03/12 01:11:28;;;;;;;49.92;25.75;;;23.00;28.30;;;;;;6149122;28;83014;-62
2022/03/12 01:14:29;;;;;;;49.97;26.63;;;23.00;28.30;;;;;;6148247;28;83021;-61
2022/03/12 01:17:32;;;;;;;50.42;25.75;;;23.00;28.20;;;;;;6145738;28;83000;-61
2022/03/12 01:20:32;;;;;;;49.80;27.35;;;23.00;28.20;;;;;;6141037;28;83020;-62
2022/03/12 01:23:33;;;;;;;48.45;25.50;;;23.00;28.30;;;;;;6138497;28;83657;-61
2022/03/12 01:26:38;;;;;;;51.88;27.92;;;22.90;28.30;;;;;;6157636;28;83108;-62
2022/03/12 01:29:39;;;;;;;50.72;26.75;;;22.90;28.30;;;;;;6145636;28;82947;-62
2022/03/12 01:32:39;;;;;;;51.85;25.10;;;22.90;28.20;;;;;;6133167;28;83716;-61
2022/03/12 01:35:40;;;;;;;56.03;26.48;;;22.90;28.00;;;;;;6153864;28;83172;-62
2022/03/12 01:38:41;;;;;;;48.63;24.92;;;22.90;28.40;;;;;;6146109;28;83322;-62
2022/03/12 01:41:41;;;;;;;46.83;24.42;;;22.80;28.70;;;;;;6109653;28;82963;-61
2022/03/12 01:44:44;;;;;;;47.97;25.13;;;22.90;28.50;;;;;;6127725;28;83047;-62
2022/03/12 01:47:45;;;;;;;48.40;26.48;;;22.80;28.40;;;;;;6143743;28;83329;-61
2022/03/12 01:50:45;;;;;;;55.08;27.90;;;22.80;28.50;;;;;;6137657;28;83172;-62
2022/03/12 01:53:46;;;;;;;51.67;28.17;;;22.80;27.90;;;;;;6143289;28;82873;-61
2022/03/12 01:56:47;;;;;;;56.70;26.40;;;22.80;28.00;;;;;;6143744;28;82982;-62
2022/03/12 01:59:48;;;;;;;52.22;27.50;;;22.70;28.20;;;;;;6134592;28;84323;-62
2022/03/12 02:02:56;;;;;;;52.47;26.15;;;22.70;28.20;;;;;;6132692;28;82764;-62
2022/03/12 02:05:56;;;;;;;51.78;26.20;;;22.70;28.30;;;;;;6138441;28;83294;-62
2022/03/12 02:08:58;;;;;;;49.72;25.35;;;22.70;28.40;;;;;;6157163;28;83148;-62
2022/03/12 02:11:59;;;;;;;45.33;25.10;;;22.60;28.40;;;;;;6143481;28;83008;-62
2022/03/12 02:14:59;;;;;;;47.13;25.67;;;22.60;28.70;;;;;;6132533;28;83190;-61
2022/03/12 02:18:00;;;;;;;50.83;26.08;;;22.60;28.70;;;;;;6133354;28;83777;-61
2022/03/12 02:21:00;;;;;;;51.92;25.35;;;22.60;28.80;;;;;;6143804;28;83611;-61
2022/03/12 02:24:01;;;;;;;47.00;25.00;;;22.50;29.10;;;;;;6148309;28;83113;-62
2022/03/12 02:27:01;;;;;;;49.42;25.42;;;22.50;29.00;;;;;;6112044;28;83491;-61
2022/03/12 02:30:04;;;;;;;46.63;24.00;;;22.50;29.10;;;;;;6139345;28;83139;-61
2022/03/12 02:33:04;;;;;;;50.35;25.35;;;22.50;29.20;;;;;;6156441;28;83128;-62
2022/03/12 02:36:06;;;;;;;47.00;24.23;;;22.50;29.30;;;;;;6132452;28;84215;-60
2022/03/12 02:39:07;;;;;;;48.40;24.15;;;22.50;29.30;;;;;;6127277;28;83009;-61
2022/03/12 02:42:09;;;;;;;49.45;25.67;;;22.40;29.50;;;;;;6108141;28;82587;-61
2022/03/12 02:45:09;;;;;;;45.22;24.33;;;22.40;29.40;;;;;;6127041;28;83043;-62
2022/03/12 02:48:10;;;;;;;46.78;24.90;;;22.40;29.50;;;;;;6133890;28;82978;-61
2022/03/12 02:51:11;;;;;;;49.15;25.48;;;22.40;29.70;;;;;;6152653;28;84220;-61
2022/03/12 02:54:12;;;;;;;45.38;23.63;;;22.30;29.50;;;;;;6141592;28;83066;-61
2022/03/12 02:57:14;;;;;;;45.30;24.63;;;22.30;29.50;;;;;;6137543;28;83043;-61
2022/03/12 03:00:16;;;;;;;47.10;24.63;;;22.30;29.40;;;;;;6133818;28;83523;-61
2022/03/12 03:03:17;;;;;;;52.30;26.52;;;22.30;29.50;;;;;;6129674;28;83050;-61
2022/03/12 03:06:18;;;;;;;49.88;25.35;;;22.30;29.40;;;;;;6135104;28;83518;-63
2022/03/12 03:09:19;;;;;;;47.63;24.13;;;22.30;29.50;;;;;;6148943;28;84456;-61
2022/03/12 03:12:22;;;;;;;46.08;24.15;;;22.30;29.40;;;;;;6133666;28;84113;-61
2022/03/12 03:15:23;;;;;;;47.90;25.25;;;22.30;29.50;;;;;;6135880;28;84053;-60
2022/03/12 03:18:24;;;;;;;50.00;25.50;;;22.20;29.50;;;;;;6155310;28;83160;-63
2022/03/12 03:21:25;;;;;;;51.03;23.52;;;22.30;29.60;;;;;;6149020;28;83842;-61
2022/03/12 03:24:25;;;;;;;47.03;24.75;;;22.20;29.50;;;;;;6130963;28;84163;-61
2022/03/12 03:27:26;;;;;;;45.55;23.40;;;22.20;29.60;;;;;;6131120;28;83022;-61
2022/03/12 03:30:26;;;;;;;43.25;22.85;;;22.30;30.00;;;;;;6134060;28;84488;-62
2022/03/12 03:33:27;;;;;;;48.42;24.35;;;22.30;30.00;;;;;;6111289;28;84314;-63
2022/03/12 03:36:28;;;;;;;49.45;25.50;;;22.30;29.40;;;;;;6130424;28;83602;-61
2022/03/12 03:39:28;;;;;;;49.53;26.00;;;22.30;29.10;;;;;;6131242;28;83197;-60
2022/03/12 03:42:29;;;;;;;53.58;27.40;;;22.40;29.00;;;;;;6130842;28;84325;-64
2022/03/12 03:45:29;;;;;;;45.85;25.17;;;22.40;28.60;;;;;;6131084;28;83304;-61
2022/03/12 03:48:31;;;;;;;53.97;28.25;;;22.40;28.60;;;;;;6131047;28;82895;-63
2022/03/12 03:51:42;;;;;;;47.97;25.63;;;22.50;28.40;;;;;;6147095;28;84576;-61
2022/03/12 03:54:43;;;;;;;50.53;26.60;;;22.50;28.30;;;;;;6152107;28;82961;-61
2022/03/12 03:57:44;;;;;;;55.63;27.77;;;22.60;28.10;;;;;;6132705;28;83335;-61
2022/03/12 04:00:44;;;;;;;51.83;25.95;;;22.60;28.00;;;;;;6138626;28;84327;-61
2022/03/12 04:03:48;;;;;;;55.03;27.65;;;22.60;27.90;;;;;;6142253;28;82954;-61
2022/03/12 04:06:49;;;;;;;48.72;26.15;;;22.70;27.70;;;;;;6140797;28;83050;-62
2022/03/12 04:09:49;;;;;;;51.75;26.67;;;22.70;27.80;;;;;;6131089;28;83246;-61
2022/03/12 04:12:50;;;;;;;47.47;26.60;;;22.70;27.80;;;;;;6134524;28;82824;-61
2022/03/12 04:15:51;;;;;;;47.15;25.33;;;22.70;27.70;;;;;;6150235;28;84602;-61
2022/03/12 04:18:51;;;;;;;48.03;26.60;;;22.70;27.60;;;;;;6158449;28;83513;-60
2022/03/12 04:21:53;;;;;;;51.58;26.48;;;22.70;27.40;;;;;;6159252;28;83222;-60
2022/03/12 04:24:54;;;;;;;49.10;26.58;;;22.80;27.50;;;;;;6139872;28;83465;-60
2022/03/12 04:27:55;;;;;;;50.88;27.75;;;22.80;27.40;;;;;;6134468;28;83197;-60
2022/03/12 04:30:56;;;;;;;50.45;26.17;;;22.80;27.40;;;;;;6129638;28;83385;-63
2022/03/12 04:33:56;;;;;;;49.50;26.35;;;22.80;27.20;;;;;;6125853;28;84034;-59
2022/03/12 04:36:57;;;;;;;52.10;27.65;;;22.80;27.20;;;;;;6138415;28;83193;-60
2022/03/12 04:39:58;;;;;;;52.25;26.00;;;22.90;27.30;;;;;;6145287;28;83362;-61
2022/03/12 04:42:58;;;;;;;54.92;27.27;;;22.90;27.50;;;;;;6133831;28;82907;-64
2022/03/12 04:45:59;;;;;;;47.72;26.08;;;22.90;27.60;;;;;;6134127;28;82904;-61
2022/03/12 04:49:00;;;;;;;49.65;27.45;;;22.90;27.70;;;;;;6133884;28;83049;-61
2022/03/12 04:52:01;;;;;;;48.92;25.90;;;22.90;27.70;;;;;;6133440;28;83376;-61
2022/03/12 04:55:01;;;;;;;48.85;25.80;;;23.00;27.80;;;;;;6133604;28;84443;-61
2022/03/12 04:58:02;;;;;;;47.58;25.52;;;22.90;27.80;;;;;;6138813;28;83423;-62
2022/03/12 05:01:03;;;;;;;46.88;24.80;;;22.90;27.80;;;;;;6133366;28;83364;-63
2022/03/12 05:04:03;;;;;;;48.00;26.17;;;22.90;27.80;;;;;;6130586;28;84761;-63
2022/03/12 05:07:04;;;;;;;43.85;23.95;;;23.00;27.80;;;;;;6141769;28;83269;-63
2022/03/12 05:10:09;;;;;;;51.95;26.70;;;23.00;27.80;;;;;;6128206;28;90165;-63
2022/03/12 05:13:12;;;;;;;52.15;27.10;;;23.00;27.70;;;;;;6124090;28;83049;-62
2022/03/12 05:16:15;;;;;;;48.40;25.65;;;23.00;27.70;;;;;;6129460;28;83167;-62
2022/03/12 05:19:18;;;;;;;51.28;25.85;;;23.00;27.60;;;;;;6155157;28;82949;-62
2022/03/12 05:22:18;;;;;;;51.03;26.13;;;23.00;27.60;;;;;;6132743;28;84380;-62
2022/03/12 05:25:19;;;;;;;44.08;24.45;;;23.00;28.00;;;;;;6157674;28;83083;-62
2022/03/12 05:28:23;;;;;;;46.97;25.50;;;23.00;27.80;;;;;;6143448;28;84198;-63
2022/03/12 05:31:24;;;;;;;48.30;25.02;;;23.00;27.70;;;;;;6132692;28;85346;-62
2022/03/12 05:34:25;;;;;;;48.35;25.08;;;23.00;27.50;;;;;;6125428;28;83484;-63
2022/03/12 05:37:25;;;;;;;53.30;25.63;;;23.00;27.80;;;;;;6123676;28;83009;-63
2022/03/12 05:40:26;;;;;;;52.75;25.65;;;23.00;27.90;;;;;;6124009;28;82925;-64
2022/03/12 05:43:33;;;;;;;43.50;23.60;;;23.00;28.00;;;;;;6123167;28;84201;-63
2022/03/12 05:46:34;;;;;;;43.88;22.02;;;23.00;28.40;;;;;;6127304;28;83146;-63
2022/03/12 05:49:34;;;;;;;45.38;22.80;;;23.00;28.20;;;;;;6153816;28;84901;-63
2022/03/12 05:52:35;;;;;;;46.63;24.58;;;23.00;28.40;;;;;;6152305;28;83006;-62
2022/03/12 05:55:38;;;;;;;45.38;23.42;;;23.00;28.10;;;;;;6129257;28;84661;-62
2022/03/12 05:58:39;;;;;;;46.25;23.75;;;23.00;28.40;;;;;;6136735;28;83164;-62
2022/03/12 06:01:40;;;;;;;44.72;24.25;;;23.00;28.60;;;;;;6131088;28;82847;-63
2022/03/12 06:04:41;;;;;;;44.53;22.13;;;23.00;28.40;;;;;;6134745;28;83335;-64
2022/03/12 06:07:44;;;;;;;41.80;20.17;;;23.00;29.50;;;;;;6118316;28;83307;-63
2022/03/12 06:10:50;;;;;;;31.35;17.63;;;23.00;29.80;;;;;;6130200;28;83502;-65
2022/03/12 06:13:54;;;;;;;30.98;14.75;;;22.90;31.40;;;;;;6128082;28;83528;-65
2022/03/12 06:16:54;;;;;;;30.33;15.20;;;22.90;32.40;;;;;;6130630;28;83325;-65
2022/03/12 06:19:55;;;;;;;27.88;15.00;;;22.80;33.60;;;;;;6117220;28;83088;-65
2022/03/12 06:22:56;;;;;;;27.85;13.82;;;22.80;34.10;;;;;;6120055;28;84729;-64
2022/03/12 06:25:56;;;;;;;25.60;13.00;;;22.80;34.80;;;;;;6108379;28;83249;-61
2022/03/12 06:28:58;;;;;;;23.25;12.75;;;22.70;35.10;;;;;;6117639;28;83483;-65
2022/03/12 06:32:00;;;;;;;23.20;12.52;;;22.80;34.80;;;;;;6131721;28;82731;-65
2022/03/12 06:35:01;;;;;;;27.02;13.38;;;22.60;35.30;;;;;;6120472;28;83065;-65
2022/03/12 06:38:01;;;;;;;24.58;12.32;;;22.60;35.00;;;;;;6118219;28;83032;-64
2022/03/12 06:41:02;;;;;;;23.10;12.18;;;22.50;35.80;;;;;;6133114;28;83317;-61
2022/03/12 06:44:02;;;;;;;26.10;13.45;;;22.40;36.00;;;;;;6133472;28;83250;-64
2022/03/12 06:47:04;;;;;;;27.05;12.45;;;22.30;36.10;;;;;;6153201;28;83415;-64
2022/03/12 06:50:04;;;;;;;24.25;11.73;;;22.20;36.80;;;;;;6146062;28;84620;-66
2022/03/12 06:53:06;;;;;;;22.52;11.88;;;22.20;37.10;;;;;;6140942;28;83025;-66
2022/03/12 06:56:07;;;;;;;24.52;11.95;;;22.20;37.50;;;;;;6155721;28;82959;-65
2022/03/12 06:59:07;;;;;;;22.13;12.25;;;22.20;37.20;;;;;;6141279;28;83167;-65
2022/03/12 07:02:08;;;;;;;25.23;12.00;;;22.20;37.70;;;;;;6107807;28;83262;-65
2022/03/12 07:05:08;;;;;;;20.90;11.48;;;22.20;38.20;;;;;;6126734;28;83384;-62
2022/03/12 07:08:09;;;;;;;23.58;11.45;;;22.20;38.40;;;;;;6118275;28;84056;-61
2022/03/12 07:11:11;;;;;;;19.80;10.65;;;22.20;37.90;;;;;;6135677;28;83284;-61
2022/03/12 07:14:11;;;;;;;25.20;12.00;;;22.20;37.60;;;;;;6131823;28;83243;-61
2022/03/12 07:17:12;;;;;;;22.88;11.77;;;22.20;37.30;;;;;;6121338;28;82914;-59
2022/03/12 07:20:13;;;;;;;27.15;11.40;;;22.10;37.70;;;;;;6119702;28;83414;-61
2022/03/12 07:23:13;;;;;;;21.65;11.40;;;22.20;37.50;;;;;;6115464;28;83116;-61
2022/03/12 07:26:14;;;;;;;25.67;12.23;;;22.20;37.40;;;;;;6128553;28;85887;-62
2022/03/12 07:29:14;;;;;;;18.23;9.85;;;22.20;37.20;;;;;;6114489;28;83188;-61
2022/03/12 07:32:15;;;;;;;21.45;10.93;;;22.10;37.40;;;;;;6128235;28;82900;-64
2022/03/12 07:35:16;;;;;;;21.63;11.75;;;22.20;36.90;;;;;;6119395;28;84827;-64
2022/03/12 07:38:16;;;;;;;23.33;11.27;;;22.10;37.10;;;;;;6114480;28;83478;-64
2022/03/12 07:41:18;;;;;;;19.77;11.15;;;22.10;37.10;;;;;;6122472;28;83152;-63
2022/03/12 07:44:18;;;;;;;17.65;9.73;;;22.10;37.10;;;;;;6118661;28;82985;-63
2022/03/12 07:47:19;;;;;;;25.08;11.82;;;22.10;37.50;;;;;;6147412;28;83535;-63
2022/03/12 07:50:19;;;;;;;23.02;10.45;;;22.10;37.20;;;;;;6132443;28;82706;-63
2022/03/12 07:53:20;;;;;;;16.98;10.32;;;22.20;37.10;;;;;;6132010;28;83082;-63
2022/03/12 07:56:20;;;;;;;20.52;10.63;;;22.30;38.30;;;;;;6127958;28;82819;-63
2022/03/12 07:59:21;;;;;;;21.70;10.55;;;22.30;38.30;;;;;;6128820;28;83055;-64
2022/03/12 08:02:21;;;;;;;15.80;9.80;;;22.30;38.60;;;;;;6133680;28;83460;-63
2022/03/12 08:05:24;;;;;;;18.08;9.60;;;22.30;38.00;;;;;;6135004;28;83983;-62
2022/03/12 08:08:25;;;;;;;17.25;9.52;;;22.30;37.70;;;;;;6140454;28;81800;-63
2022/03/12 08:11:28;;;;;;;15.30;8.68;;;22.40;38.20;;;;;;6154984;28;80547;-63
2022/03/12 08:14:31;;;;;;;15.85;7.80;;;22.40;37.60;;;;;;6149409;28;81362;-64
2022/03/12 08:17:32;;;;;;;16.48;8.65;;;22.40;37.90;;;;;;6161647;28;80436;-63
2022/03/12 08:20:33;;;;;;;17.02;8.57;;;22.40;37.40;;;;;;6135424;28;80309;-63
2022/03/12 08:23:34;;;;;;;11.82;7.18;;;22.40;37.90;;;;;;6137453;28;80619;-63
2022/03/12 08:26:34;;;;;;;16.15;8.30;;;22.40;38.20;;;;;;6133648;28;80324;-63
2022/03/12 08:29:35;;;;;;;23.35;11.77;;;22.40;38.10;;;;;;6138044;28;80546;-66
2022/03/12 08:32:36;;;;;;;23.35;11.82;;;22.40;33.80;;;;;;6126222;28;84200;-63
2022/03/12 08:35:36;;;;;;;20.13;11.30;;;22.30;33.40;;;;;;6124200;28;83108;-63
2022/03/12 08:38:37;;;;;;;24.27;10.63;;;22.40;34.50;;;;;;6126907;28;82923;-62
2022/03/12 08:41:38;;;;;;;18.42;9.07;;;22.40;34.90;;;;;;6130270;28;84425;-62
2022/03/12 08:44:39;;;;;;;17.00;9.35;;;22.40;36.00;;;;;;6133934;28;82757;-61
2022/03/12 08:47:40;;;;;;;16.88;8.73;;;22.30;36.60;;;;;;6135200;28;80362;-59
2022/03/12 08:50:41;;;;;;;14.02;8.00;;;22.30;37.10;;;;;;6124444;28;87258;-63
2022/03/12 08:53:42;;;;;;;18.40;7.88;;;22.30;37.10;;;;;;6127739;28;81742;-62
2022/03/12 08:56:43;;;;;;;14.93;7.15;;;22.40;37.30;;;;;;6132912;28;80672;-64
2022/03/12 08:59:44;;;;;;;39.63;19.25;;;22.40;37.80;;;;;;6119623;28;80978;-62
2022/03/12 09:02:45;;;;;;;96.45;46.00;;;22.50;37.70;;;;;;6111336;28;82816;-62
2022/03/12 09:05:45;;;;;;;133.57;63.35;;;22.60;38.50;;;;;;6143107;28;83053;-62
2022/03/12 09:08:46;;;;;;;113.65;52.88;;;22.80;37.80;;;;;;6138554;28;84142;-64
2022/03/12 09:11:47;;;;;;;99.25;43.70;;;22.80;38.30;;;;;;6149525;28;83621;-64
2022/03/12 09:14:48;;;;;;;109.60;51.70;;;22.80;38.10;;;;;;6154358;28;83025;-63
2022/03/12 09:17:48;;;;;;;137.07;66.80;;;22.80;37.50;;;;;;6133560;28;83324;-63
2022/03/12 09:20:49;;;;;;;177.68;85.90;;;22.90;37.30;;;;;;6120339;28;82954;-63
2022/03/12 09:23:50;;;;;;;175.60;79.07;;;22.90;37.30;;;;;;6129507;28;83002;-63
2022/03/12 09:26:50;;;;;;;129.73;63.70;;;22.90;37.70;;;;;;6127581;28;82923;-64
2022/03/12 09:29:51;;;;;;;111.18;52.70;;;23.00;37.80;;;;;;6139483;28;83169;-60
2022/03/12 09:32:53;;;;;;;98.80;45.15;;;23.00;37.40;;;;;;6153478;28;83353;-60
2022/03/12 09:35:54;;;;;;;79.43;39.20;;;23.10;37.60;;;;;;6134015;28;83023;-59
2022/03/12 09:38:55;;;;;;;62.92;31.20;;;23.10;38.30;;;;;;6133319;28;83104;-60
2022/03/12 09:41:56;;;;;;;56.90;27.52;;;23.10;38.10;;;;;;6132951;28;83491;-61
2022/03/12 09:44:57;;;;;;;50.05;23.73;;;23.20;38.70;;;;;;6131747;28;83128;-60
2022/03/12 09:47:58;;;;;;;52.88;21.65;;;23.20;38.60;;;;;;6116175;28;83430;-60
2022/03/12 09:50:58;;;;;;;41.65;20.05;;;23.20;39.20;;;;;;6120389;28;83209;-62
2022/03/12 09:53:59;;;;;;;41.03;17.00;;;23.10;38.80;;;;;;6122352;28;82974;-60
2022/03/12 09:57:40;;;;;;;33.22;15.82;;;23.20;38.00;;;;;;6214271;27;74823;-61
2022/03/12 10:00:41;;;;;;;32.00;16.10;;;23.30;39.10;;;;;;6175448;28;83139;-65
2022/03/12 10:03:43;;;;;;;26.83;12.90;;;23.40;39.00;;;;;;6175895;28;83503;-63
2022/03/12 10:06:44;;;;;;;27.60;13.73;;;23.50;39.00;;;;;;6175379;28;83020;-64
2022/03/12 10:09:44;;;;;;;26.85;12.98;;;23.50;38.90;;;;;;6171310;28;83846;-65
2022/03/12 10:12:45;;;;;;;23.58;11.27;;;23.50;38.60;;;;;;6175531;28;83080;-64
2022/03/12 10:15:45;;;;;;;24.60;11.07;;;23.50;39.00;;;;;;6175239;28;83125;-64
2022/03/12 10:18:47;;;;;;;21.95;10.38;;;23.60;38.80;;;;;;6170905;28;83609;-64
2022/03/12 10:21:52;;;;;;;20.30;11.00;;;23.60;38.60;;;;;;6167785;28;83459;-64
2022/03/12 10:24:53;;;;;;;18.05;8.95;;;23.60;38.50;;;;;;6170997;28;83242;-64
2022/03/12 10:27:53;;;;;;;15.40;9.20;;;23.60;38.60;;;;;;6176965;28;83817;-64
2022/03/12 10:30:54;;;;;;;13.45;8.32;;;23.60;38.90;;;;;;6176683;28;80358;-64
2022/03/12 10:33:55;;;;;;;16.95;8.80;;;23.60;38.60;;;;;;6158249;28;80251;-65
2022/03/12 10:36:57;;;;;;;18.55;8.57;;;23.70;39.00;;;;;;6179808;28;80375;-64
2022/03/12 10:39:57;;;;;;;17.17;7.85;;;23.80;39.50;;;;;;6175100;28;81405;-64
2022/03/12 10:42:58;;;;;;;14.30;7.13;;;23.90;39.20;;;;;;6176873;28;80562;-65
2022/03/12 10:45:58;;;;;;;12.68;6.75;;;24.00;39.30;;;;;;6155069;28;82219;-65
2022/03/12 10:48:59;;;;;;;12.27;5.93;;;24.00;39.00;;;;;;6160679;28;80373;-65
2022/03/12 10:51:59;;;;;;;12.98;5.93;;;24.00;39.00;;;;;;6156238;28;80680;-64
2022/03/12 10:55:00;;;;;;;11.60;6.32;;;24.00;38.80;;;;;;6173916;28;80349;-65
2022/03/12 10:58:01;;;;;;;10.48;5.63;;;24.00;38.60;;;;;;6172538;28;81696;-65
2022/03/12 11:01:02;;;;;;;12.63;4.90;;;24.00;38.60;;;;;;6167059;28;80589;-64
2022/03/12 11:04:03;;;;;;;9.20;5.32;;;24.00;38.50;;;;;;6165330;28;80267;-64
2022/03/12 11:07:05;;;;;;;13.00;5.05;;;24.00;38.50;;;;;;6162242;28;82156;-65
2022/03/12 11:10:07;;;;;;;11.73;5.40;;;24.10;38.80;;;;;;6147685;28;80668;-64
2022/03/12 11:13:08;;;;;;;8.57;5.63;;;24.10;38.50;;;;;;6153494;28;81760;-65
2022/03/12 11:16:12;;;;;;;9.90;5.05;;;24.10;38.60;;;;;;6148741;28;80229;-66
2022/03/12 11:19:13;;;;;;;7.72;4.97;;;24.10;38.50;;;;;;6156522;28;81152;-64
2022/03/12 11:22:15;;;;;;;10.35;4.35;;;24.10;38.40;;;;;;6162307;28;81099;-64
2022/03/12 11:25:18;;;;;;;9.02;4.75;;;24.10;38.40;;;;;;6162338;28;80356;-65
2022/03/12 11:28:19;;;;;;;6.28;3.92;;;24.10;38.60;;;;;;6161756;28;81732;-63
2022/03/12 11:31:19;;;;;;;7.72;4.53;;;24.10;38.70;;;;;;6162475;28;80241;-63
2022/03/12 11:34:20;;;;;;;8.50;4.15;;;24.20;38.80;;;;;;6138165;28;80454;-67
2022/03/12 11:37:21;;;;;;;11.13;4.50;;;24.20;39.00;;;;;;6138283;28;80250;-65
2022/03/12 11:40:21;;;;;;;7.35;4.45;;;24.20;38.70;;;;;;6139910;28;80460;-66
2022/03/12 11:43:23;;;;;;;6.40;4.25;;;24.20;38.60;;;;;;6146738;28;80411;-68
2022/03/12 11:46:24;;;;;;;8.95;3.97;;;24.20;38.80;;;;;;6151030;28;80250;-68
2022/03/12 11:49:25;;;;;;;7.32;3.78;;;24.20;38.50;;;;;;6137437;28;80544;-66
2022/03/12 11:52:25;;;;;;;8.32;4.07;;;24.30;38.50;;;;;;6157052;28;80427;-68
2022/03/12 11:55:27;;;;;;;12.32;3.85;;;24.30;38.60;;;;;;6149747;28;81129;-67
2022/03/12 11:58:27;;;;;;;4.95;3.55;;;24.30;38.80;;;;;;6160246;28;80539;-60
2022/03/12 12:01:28;;;;;;;4.30;2.92;;;24.30;38.90;;;;;;6160413;28;80545;-66
2022/03/12 12:04:32;;;;;;;4.55;2.85;;;24.30;39.00;;;;;;6160819;28;80754;-67
2022/03/12 12:07:36;;;;;;;6.35;3.25;;;24.30;39.50;;;;;;6161852;28;80567;-63
2022/03/12 12:10:39;;;;;;;4.15;2.85;;;24.30;40.10;;;;;;6151732;28;80585;-66
2022/03/12 12:13:43;;;;;;;6.55;3.42;;;24.40;40.20;;;;;;6148568;28;80774;-71
2022/03/12 12:16:45;;;;;;;7.95;3.33;;;24.40;40.60;;;;;;6145953;28;81427;-78
2022/03/12 12:19:48;;;;;;;4.18;2.45;;;24.40;40.70;;;;;;6139388;28;80766;-77
2022/03/12 12:22:48;;;;;;;4.38;2.63;;;24.50;41.20;;;;;;6138276;28;80623;-70
2022/03/12 12:25:49;;;;;;;15.32;4.82;;;24.50;41.60;;;;;;6148893;28;81378;-72
2022/03/12 12:28:49;;;;;;;18.02;5.38;;;24.50;42.40;;;;;;6154614;28;81416;-68
2022/03/12 12:31:50;;;;;;;17.65;5.40;;;24.60;42.20;;;;;;6160300;28;80429;-72
2022/03/12 12:34:50;;;;;;;19.42;5.70;;;24.60;41.90;;;;;;6137170;28;80857;-69
2022/03/12 12:37:54;;;;;;;12.98;5.80;;;24.60;39.80;;;;;;6160314;28;80371;-69
2022/03/12 12:40:55;;;;;;;12.10;5.00;;;24.60;36.60;;;;;;6161303;28;80885;-69
2022/03/12 12:43:58;;;;;;;14.50;4.78;;;24.50;35.70;;;;;;6144662;28;83067;-74
2022/03/12 12:46:58;;;;;;;10.70;4.18;;;24.50;36.10;;;;;;6155404;28;80331;-72
2022/03/12 12:49:59;;;;;;;5.95;3.22;;;24.50;36.50;;;;;;6145880;28;81450;-75
2022/03/12 12:53:00;;;;;;;8.80;3.72;;;24.60;37.40;;;;;;6161536;28;80815;-75
2022/03/12 12:56:00;;;;;;;9.95;3.50;;;24.60;37.90;;;;;;6153681;28;81546;-75
2022/03/12 12:59:01;;;;;;;6.57;3.08;;;24.60;37.90;;;;;;6152099;28;80766;-74
2022/03/12 13:02:02;;;;;;;5.20;3.25;;;24.60;38.00;;;;;;6157404;28;80398;-81
2022/03/12 13:05:02;;;;;;;5.25;3.03;;;24.60;38.10;;;;;;6162206;28;80438;-77
2022/03/12 13:08:03;;;;;;;4.85;2.42;;;24.60;38.10;;;;;;6159361;28;82324;-77
2022/03/12 13:11:04;;;;;;;6.03;2.97;;;24.60;38.50;;;;;;6149774;28;82016;-74
2022/03/12 13:14:04;;;;;;;6.32;2.88;;;24.60;38.40;;;;;;6143788;28;82162;-75
2022/03/12 13:17:05;;;;;;;4.45;2.55;;;24.60;38.70;;;;;;6149394;28;80337;-72
2022/03/12 13:20:05;;;;;;;8.10;2.67;;;24.60;38.80;;;;;;6158667;28;80659;-75
2022/03/12 13:23:06;;;;;;;7.93;2.92;;;24.60;38.80;;;;;;6158292;28;84464;-65
2022/03/12 13:26:07;;;;;;;4.90;2.50;;;24.60;38.80;;;;;;6138870;28;81451;-70
2022/03/12 13:29:09;;;;;;;4.95;2.67;;;24.60;39.20;;;;;;6136730;28;80473;-77
2022/03/12 13:32:10;;;;;;;4.63;2.55;;;24.60;38.90;;;;;;6137190;28;80434;-73
2022/03/12 13:35:12;;;;;;;3.15;2.20;;;24.60;39.30;;;;;;6145153;28;80370;-72
2022/03/12 13:38:13;;;;;;;5.38;2.58;;;24.60;39.60;;;;;;6138050;28;80326;-81
2022/03/12 13:41:13;;;;;;;5.15;3.22;;;24.60;39.60;;;;;;6157413;28;80727;-74
2022/03/12 13:44:14;;;;;;;21.00;12.13;;;24.60;39.70;;;;;;6142779;28;80200;-79
2022/03/12 13:47:15;;;;;;;70.65;32.10;;;24.60;39.90;;;;;;6159102;28;83139;-76
2022/03/12 13:50:16;;;;;;;104.70;50.30;;;24.60;39.50;;;;;;6149565;28;87799;-70
2022/03/12 13:53:16;;;;;;;111.70;55.00;;;24.70;39.80;;;;;;6149158;28;83459;-75
2022/03/12 13:56:18;;;;;;;157.77;80.85;;;24.70;39.10;;;;;;6144700;28;83125;-74
2022/03/12 13:59:20;;;;;;;178.38;89.95;;;24.70;39.30;;;;;;6154913;28;84108;-74
2022/03/12 14:02:22;;;;;;;199.68;96.50;;;24.70;39.10;;;;;;6133447;28;89317;-72
2022/03/12 14:05:23;;;;;;;163.90;82.28;;;24.70;38.80;;;;;;6152124;28;84214;-73
2022/03/12 14:08:25;;;;;;;136.13;66.18;;;24.70;39.20;;;;;;6146201;28;83341;-74
2022/03/12 14:11:26;;;;;;;121.05;57.30;;;24.70;39.20;;;;;;6141529;28;83586;-77
2022/03/12 14:14:26;;;;;;;110.22;52.67;;;24.70;39.30;;;;;;6150551;28;84223;-74
2022/03/12 14:17:27;;;;;;;96.18;47.22;;;24.70;39.20;;;;;;6144281;28;84630;-74
2022/03/12 14:20:28;;;;;;;85.47;41.72;;;24.70;39.50;;;;;;6154037;28;83109;-72
2022/03/12 14:23:29;;;;;;;72.43;34.13;;;24.70;38.80;;;;;;6151398;28;83307;-71
2022/03/12 14:26:30;;;;;;;59.25;32.47;;;24.70;39.00;;;;;;6139159;28;84415;-70
2022/03/12 14:29:30;;;;;;;62.75;28.80;;;24.70;38.90;;;;;;6131861;28;86173;-72
2022/03/12 14:32:32;;;;;;;51.53;26.50;;;24.70;38.80;;;;;;6145901;28;84228;-73
2022/03/12 14:35:34;;;;;;;49.15;23.52;;;24.60;38.80;;;;;;6146544;28;83556;-65
2022/03/12 14:38:35;;;;;;;37.22;19.13;;;24.60;38.30;;;;;;6139870;28;84173;-65
2022/03/12 14:41:35;;;;;;;34.28;17.25;;;24.60;37.10;;;;;;6153574;28;83021;-69
2022/03/12 14:44:36;;;;;;;33.95;16.30;;;24.60;36.80;;;;;;6138965;28;84074;-72
2022/03/12 14:47:37;;;;;;;29.73;16.45;;;24.60;36.60;;;;;;6135913;28;83473;-71
2022/03/12 14:50:37;;;;;;;25.00;12.00;;;24.60;36.00;;;;;;6149989;28;84017;-73
2022/03/12 14:53:38;;;;;;;20.85;11.35;;;24.60;36.20;;;;;;6155749;28;83121;-70
2022/03/12 14:56:38;;;;;;;21.02;10.55;;;24.50;36.70;;;;;;6150211;28;82928;-71
2022/03/12 14:59:39;;;;;;;18.23;8.57;;;24.50;36.70;;;;;;6159801;28;83227;-72
2022/03/12 15:02:40;;;;;;;20.65;9.85;;;24.50;36.90;;;;;;6151408;28;83769;-73
2022/03/12 15:05:41;;;;;;;18.45;9.20;;;24.50;36.70;;;;;;6158288;28;80262;-74
2022/03/12 15:08:41;;;;;;;23.42;8.20;;;24.50;37.50;;;;;;6150521;28;80765;-74
2022/03/12 15:11:42;;;;;;;16.30;7.72;;;24.50;37.40;;;;;;6154468;28;80331;-73
2022/03/12 15:14:43;;;;;;;13.80;7.50;;;24.50;37.50;;;;;;6165620;28;80817;-74
2022/03/12 15:17:44;;;;;;;8.93;5.82;;;24.40;37.00;;;;;;6148995;28;82161;-72
2022/03/12 15:20:44;;;;;;;16.38;7.22;;;24.40;37.40;;;;;;6137064;28;83309;-73
2022/03/12 15:23:45;;;;;;;10.38;5.95;;;24.40;37.30;;;;;;6146974;28;81412;-74